AFL1041 URSS-UUEE
Flight info
| Callsign | AFL1041 |
|---|---|
| Flight time | 2h 15m |
| Altitude | 39000 |
| Route | IRGI1D IRGID A944 GUBOR G487 ERSAR DCT BEMES DCT VULFI DCT TUVGI DCT EVZUN DCT ZIZAR DCT VAZLU DCT UZZID DCT NOKLI N72 WGD G481 OBABI T619 UMRAL P163 GOLRI L736 OLOPI OLOP3F |
| Aircraft | A359/H-SDE2E3GHIJ3J4J5LM1ORWXY/LB1D1 |
Departure
| Time | 2026-05-07 09:33 |
|---|---|
| Airport | Sochi International Airport (URSS) |
Arrival
| Time | 2026-05-07 11:49 |
|---|---|
| Airport | Sheremetyevo International Airport (UUEE) |
| Time | Latitude | Longitude | Altitude | Speed | Heading |
|---|---|---|---|---|---|
| 2026-05-07 09:23 | 43.44890 | 39.94534 | 85 ft | 0 kts | 297° |
| 2026-05-07 09:25 | 43.44889 | 39.94538 | 90 ft | 2 kts | 297° |
| 2026-05-07 09:26 | 43.44881 | 39.94558 | 87 ft | 2 kts | 304° |
| 2026-05-07 09:26 | 43.44871 | 39.94575 | 90 ft | 2 kts | 312° |
| 2026-05-07 09:26 | 43.44859 | 39.94591 | 90 ft | 2 kts | 326° |
| 2026-05-07 09:26 | 43.44844 | 39.94601 | 90 ft | 2 kts | 347° |
| 2026-05-07 09:27 | 43.44828 | 39.94602 | 88 ft | 2 kts | 17° |
| 2026-05-07 09:27 | 43.44813 | 39.94592 | 88 ft | 2 kts | 43° |
| 2026-05-07 09:27 | 43.44808 | 39.94584 | 88 ft | 0 kts | 54° |
| 2026-05-07 09:29 | 43.44811 | 39.94595 | 88 ft | 3 kts | 63° |
| 2026-05-07 09:29 | 43.44829 | 39.94668 | 89 ft | 8 kts | 97° |
| 2026-05-07 09:30 | 43.44817 | 39.94745 | 90 ft | 9 kts | 87° |
| 2026-05-07 09:30 | 43.44837 | 39.94831 | 92 ft | 10 kts | 68° |
| 2026-05-07 09:30 | 43.44868 | 39.94923 | 92 ft | 11 kts | 64° |
| 2026-05-07 09:30 | 43.44904 | 39.95024 | 95 ft | 13 kts | 64° |
| 2026-05-07 09:31 | 43.44945 | 39.95138 | 94 ft | 14 kts | 63° |
| 2026-05-07 09:31 | 43.44989 | 39.95262 | 98 ft | 15 kts | 65° |
| 2026-05-07 09:31 | 43.45034 | 39.95393 | 98 ft | 16 kts | 64° |
| 2026-05-07 09:31 | 43.45052 | 39.95446 | 101 ft | 0 kts | 65° |
| 2026-05-07 09:32 | 43.45060 | 39.95479 | 100 ft | 6 kts | 83° |
| 2026-05-07 09:32 | 43.45043 | 39.95513 | 101 ft | 7 kts | 133° |
| 2026-05-07 09:32 | 43.44976 | 39.95557 | 101 ft | 9 kts | 176° |
| 2026-05-07 09:32 | 43.44958 | 39.95534 | 101 ft | 3 kts | 240° |
| 2026-05-07 09:33 | 43.44941 | 39.95487 | 99 ft | 13 kts | 244° |
| 2026-05-07 09:33 | 43.44777 | 39.95011 | 95 ft | 105 kts | 244° |
| 2026-05-07 09:33 | 43.44342 | 39.93740 | 281 ft | 176 kts | 244° |
| 2026-05-07 09:33 | 43.43778 | 39.92097 | 1193 ft | 199 kts | 244° |
| 2026-05-07 09:34 | 43.43295 | 39.90382 | 2321 ft | 185 kts | 255° |
| 2026-05-07 09:34 | 43.43034 | 39.88713 | 3130 ft | 173 kts | 259° |
| 2026-05-07 09:34 | 43.42819 | 39.87126 | 3907 ft | 167 kts | 259° |
| 2026-05-07 09:34 | 43.42579 | 39.85470 | 4249 ft | 188 kts | 258° |
| 2026-05-07 09:35 | 43.42290 | 39.83607 | 4519 ft | 212 kts | 257° |
| 2026-05-07 09:35 | 43.41954 | 39.81537 | 4783 ft | 239 kts | 257° |
| 2026-05-07 09:35 | 43.41566 | 39.79198 | 5194 ft | 260 kts | 257° |
| 2026-05-07 09:35 | 43.41155 | 39.76743 | 5942 ft | 267 kts | 257° |
| 2026-05-07 09:36 | 43.40732 | 39.74227 | 6788 ft | 272 kts | 258° |
| 2026-05-07 09:36 | 43.40301 | 39.71667 | 7638 ft | 277 kts | 258° |
| 2026-05-07 09:36 | 43.39863 | 39.69073 | 8565 ft | 280 kts | 258° |
| 2026-05-07 09:36 | 43.39526 | 39.66424 | 9480 ft | 283 kts | 268° |
| 2026-05-07 09:37 | 43.39849 | 39.63769 | 10357 ft | 284 kts | 295° |
| 2026-05-07 09:37 | 43.40994 | 39.61553 | 10865 ft | 299 kts | 321° |
| 2026-05-07 09:37 | 43.42858 | 39.60118 | 11238 ft | 319 kts | 339° |
| 2026-05-07 09:37 | 43.45000 | 39.58996 | 11602 ft | 340 kts | 340° |
| 2026-05-07 09:38 | 43.47267 | 39.57826 | 12140 ft | 353 kts | 340° |
| 2026-05-07 09:38 | 43.49578 | 39.56603 | 12904 ft | 359 kts | 340° |
| 2026-05-07 09:38 | 43.51921 | 39.55342 | 13693 ft | 364 kts | 340° |
| 2026-05-07 09:38 | 43.54288 | 39.54057 | 14439 ft | 369 kts | 339° |
| 2026-05-07 09:39 | 43.56696 | 39.52743 | 15140 ft | 373 kts | 339° |
| 2026-05-07 09:39 | 43.59124 | 39.51414 | 15864 ft | 377 kts | 339° |
| 2026-05-07 09:39 | 43.61591 | 39.50290 | 16551 ft | 380 kts | 348° |
| 2026-05-07 09:39 | 43.64225 | 39.49985 | 17275 ft | 382 kts | 5° |
| 2026-05-07 09:40 | 43.66836 | 39.50704 | 18037 ft | 385 kts | 18° |
| 2026-05-07 09:40 | 43.69285 | 39.52220 | 18724 ft | 388 kts | 32° |
| 2026-05-07 09:40 | 43.71352 | 39.54631 | 19395 ft | 392 kts | 49° |
| 2026-05-07 09:40 | 43.72834 | 39.57812 | 20063 ft | 398 kts | 65° |
| 2026-05-07 09:41 | 43.73655 | 39.61473 | 20752 ft | 402 kts | 76° |
| 2026-05-07 09:41 | 43.74216 | 39.65227 | 21417 ft | 406 kts | 78° |
| 2026-05-07 09:41 | 43.74767 | 39.69081 | 22079 ft | 410 kts | 78° |
| 2026-05-07 09:41 | 43.75332 | 39.72965 | 22736 ft | 414 kts | 77° |
| 2026-05-07 09:42 | 43.75911 | 39.76885 | 23403 ft | 418 kts | 77° |
| 2026-05-07 09:42 | 43.76498 | 39.80842 | 24022 ft | 422 kts | 77° |
| 2026-05-07 09:42 | 43.77091 | 39.84827 | 24652 ft | 424 kts | 77° |
| 2026-05-07 09:42 | 43.77686 | 39.88832 | 25274 ft | 425 kts | 77° |
| 2026-05-07 09:43 | 43.78286 | 39.92875 | 25680 ft | 434 kts | 77° |
| 2026-05-07 09:43 | 43.78859 | 39.96964 | 25944 ft | 444 kts | 78° |
| 2026-05-07 09:43 | 43.79408 | 40.01220 | 26207 ft | 455 kts | 79° |
| 2026-05-07 09:43 | 43.79953 | 40.05577 | 26472 ft | 464 kts | 79° |
| 2026-05-07 09:44 | 43.80503 | 40.10007 | 26905 ft | 469 kts | 79° |
| 2026-05-07 09:44 | 43.81058 | 40.14462 | 27411 ft | 471 kts | 79° |
| 2026-05-07 09:44 | 43.81622 | 40.18948 | 27887 ft | 474 kts | 79° |
| 2026-05-07 09:44 | 43.82192 | 40.23449 | 28393 ft | 476 kts | 79° |
| 2026-05-07 09:45 | 43.82764 | 40.27970 | 28901 ft | 477 kts | 79° |
| 2026-05-07 09:45 | 43.83331 | 40.32446 | 29368 ft | 478 kts | 79° |
| 2026-05-07 09:45 | 43.83903 | 40.36969 | 29984 ft | 475 kts | 79° |
| 2026-05-07 09:45 | 43.84469 | 40.41458 | 30610 ft | 471 kts | 79° |
| 2026-05-07 09:46 | 43.85031 | 40.45932 | 31011 ft | 472 kts | 79° |
| 2026-05-07 09:46 | 43.85592 | 40.50423 | 31330 ft | 474 kts | 79° |
| 2026-05-07 09:46 | 43.86153 | 40.54930 | 31696 ft | 475 kts | 79° |
| 2026-05-07 09:46 | 43.86712 | 40.59434 | 32051 ft | 475 kts | 79° |
| 2026-05-07 09:47 | 43.87271 | 40.63952 | 32423 ft | 476 kts | 79° |
| 2026-05-07 09:47 | 43.87874 | 40.68400 | 32772 ft | 476 kts | 76° |
| 2026-05-07 09:47 | 43.88812 | 40.72784 | 33126 ft | 476 kts | 69° |
| 2026-05-07 09:47 | 43.90019 | 40.77064 | 33468 ft | 476 kts | 68° |
| 2026-05-07 09:48 | 43.91291 | 40.81294 | 33842 ft | 476 kts | 66° |
| 2026-05-07 09:48 | 43.92601 | 40.85517 | 34166 ft | 477 kts | 66° |
| 2026-05-07 09:48 | 43.93927 | 40.89739 | 34436 ft | 478 kts | 66° |
| 2026-05-07 09:48 | 43.95256 | 40.93968 | 34679 ft | 479 kts | 66° |
| 2026-05-07 09:49 | 43.96585 | 40.98220 | 34917 ft | 480 kts | 66° |
| 2026-05-07 09:49 | 43.97910 | 41.02481 | 35151 ft | 482 kts | 66° |
| 2026-05-07 09:49 | 43.99217 | 41.06707 | 35375 ft | 483 kts | 66° |
| 2026-05-07 09:49 | 44.00539 | 41.10994 | 35607 ft | 484 kts | 67° |
| 2026-05-07 09:50 | 44.01862 | 41.15297 | 35834 ft | 485 kts | 67° |
| 2026-05-07 09:50 | 44.03186 | 41.19616 | 36071 ft | 486 kts | 67° |
| 2026-05-07 09:50 | 44.04511 | 41.23942 | 36305 ft | 487 kts | 67° |
| 2026-05-07 09:50 | 44.05834 | 41.28272 | 36532 ft | 488 kts | 67° |
| 2026-05-07 09:51 | 44.07160 | 41.32616 | 36762 ft | 489 kts | 67° |
| 2026-05-07 09:51 | 44.08489 | 41.36976 | 36975 ft | 490 kts | 67° |
| 2026-05-07 09:51 | 44.09808 | 41.41344 | 37188 ft | 490 kts | 68° |
| 2026-05-07 09:51 | 44.10864 | 41.45791 | 37389 ft | 491 kts | 76° |
| 2026-05-07 09:52 | 44.11481 | 41.50459 | 37572 ft | 492 kts | 84° |
| 2026-05-07 09:52 | 44.11626 | 41.55221 | 37738 ft | 493 kts | 90° |
| 2026-05-07 09:52 | 44.11584 | 41.60006 | 37900 ft | 495 kts | 91° |
| 2026-05-07 09:52 | 44.11468 | 41.64792 | 38085 ft | 496 kts | 92° |
| 2026-05-07 09:53 | 44.11319 | 41.69591 | 38322 ft | 496 kts | 93° |
| 2026-05-07 09:53 | 44.11162 | 41.74363 | 38615 ft | 495 kts | 93° |
| 2026-05-07 09:53 | 44.11008 | 41.79162 | 38837 ft | 496 kts | 93° |
| 2026-05-07 09:53 | 44.10862 | 41.83892 | 38998 ft | 496 kts | 93° |
| 2026-05-07 09:54 | 44.10719 | 41.88692 | 39130 ft | 497 kts | 93° |
| 2026-05-07 09:54 | 44.10438 | 41.98311 | 39157 ft | 501 kts | 93° |
| 2026-05-07 09:55 | 44.10150 | 42.08072 | 39161 ft | 508 kts | 93° |
| 2026-05-07 09:55 | 44.09850 | 42.17911 | 39159 ft | 509 kts | 93° |
| 2026-05-07 09:56 | 44.09544 | 42.27691 | 39157 ft | 510 kts | 93° |
| 2026-05-07 09:56 | 44.09226 | 42.37536 | 39156 ft | 510 kts | 93° |
| 2026-05-07 09:57 | 44.08899 | 42.47386 | 39153 ft | 510 kts | 93° |
| 2026-05-07 09:57 | 44.08563 | 42.57243 | 39158 ft | 510 kts | 94° |
| 2026-05-07 09:58 | 44.08218 | 42.67097 | 39150 ft | 510 kts | 94° |
| 2026-05-07 09:58 | 44.07868 | 42.76894 | 39152 ft | 511 kts | 94° |
| 2026-05-07 09:59 | 44.07508 | 42.86757 | 39169 ft | 511 kts | 94° |
| 2026-05-07 09:59 | 44.07137 | 42.96648 | 39152 ft | 512 kts | 94° |
| 2026-05-07 10:00 | 44.06758 | 43.06530 | 39151 ft | 512 kts | 94° |
| 2026-05-07 10:00 | 44.06373 | 43.16361 | 39147 ft | 513 kts | 94° |
| 2026-05-07 10:01 | 44.05975 | 43.26270 | 39148 ft | 513 kts | 94° |
| 2026-05-07 10:01 | 44.05570 | 43.36180 | 39134 ft | 514 kts | 94° |
| 2026-05-07 10:02 | 44.05154 | 43.46110 | 39123 ft | 515 kts | 95° |
| 2026-05-07 10:02 | 44.04732 | 43.56041 | 39122 ft | 515 kts | 95° |
| 2026-05-07 10:03 | 44.04302 | 43.65923 | 39109 ft | 516 kts | 95° |
| 2026-05-07 10:03 | 44.03859 | 43.75864 | 39109 ft | 516 kts | 95° |
| 2026-05-07 10:04 | 44.03407 | 43.85818 | 39113 ft | 516 kts | 95° |
| 2026-05-07 10:04 | 44.02947 | 43.95777 | 39106 ft | 516 kts | 95° |
| 2026-05-07 10:05 | 44.02482 | 44.05666 | 39114 ft | 517 kts | 95° |
| 2026-05-07 10:05 | 44.02004 | 44.15635 | 39102 ft | 517 kts | 95° |
| 2026-05-07 10:06 | 44.01517 | 44.25600 | 39105 ft | 517 kts | 95° |
| 2026-05-07 10:06 | 44.01021 | 44.35561 | 39105 ft | 517 kts | 95° |
| 2026-05-07 10:07 | 44.00521 | 44.45466 | 39106 ft | 517 kts | 95° |
| 2026-05-07 10:07 | 44.00009 | 44.55438 | 39115 ft | 518 kts | 95° |
| 2026-05-07 10:08 | 43.99486 | 44.65413 | 39112 ft | 518 kts | 95° |
| 2026-05-07 10:08 | 43.98957 | 44.75383 | 39111 ft | 518 kts | 96° |
| 2026-05-07 10:09 | 43.98421 | 44.85293 | 39107 ft | 518 kts | 96° |
| 2026-05-07 10:09 | 43.97872 | 44.95276 | 39101 ft | 519 kts | 96° |
| 2026-05-07 10:10 | 43.97314 | 45.05258 | 39099 ft | 519 kts | 96° |
| 2026-05-07 10:10 | 43.96748 | 45.15247 | 39083 ft | 519 kts | 96° |
| 2026-05-07 10:11 | 43.96176 | 45.25176 | 39088 ft | 520 kts | 96° |
| 2026-05-07 10:11 | 43.95591 | 45.35172 | 39081 ft | 520 kts | 96° |
| 2026-05-07 10:12 | 43.94998 | 45.45173 | 39076 ft | 520 kts | 96° |
| 2026-05-07 10:12 | 43.94396 | 45.55171 | 39063 ft | 520 kts | 96° |
| 2026-05-07 10:13 | 43.93788 | 45.65114 | 39073 ft | 521 kts | 96° |
| 2026-05-07 10:13 | 43.93167 | 45.75124 | 39071 ft | 521 kts | 96° |
| 2026-05-07 10:14 | 43.92539 | 45.85130 | 39060 ft | 521 kts | 97° |
| 2026-05-07 10:14 | 43.92669 | 45.95191 | 39055 ft | 523 kts | 86° |
| 2026-05-07 10:15 | 43.93348 | 46.05180 | 39055 ft | 524 kts | 85° |
| 2026-05-07 10:15 | 43.94104 | 46.15238 | 39057 ft | 524 kts | 85° |
| 2026-05-07 10:16 | 43.94845 | 46.25311 | 39050 ft | 524 kts | 86° |
| 2026-05-07 10:16 | 43.95561 | 46.35377 | 39048 ft | 524 kts | 86° |
| 2026-05-07 10:17 | 43.96262 | 46.45451 | 39045 ft | 525 kts | 86° |
| 2026-05-07 10:17 | 43.96950 | 46.55470 | 39045 ft | 525 kts | 86° |
| 2026-05-07 10:18 | 43.97634 | 46.65553 | 39041 ft | 525 kts | 86° |
| 2026-05-07 10:18 | 43.98311 | 46.75653 | 39044 ft | 526 kts | 86° |
| 2026-05-07 10:19 | 43.98980 | 46.85768 | 39037 ft | 526 kts | 86° |
| 2026-05-07 10:19 | 43.99635 | 46.95821 | 39035 ft | 526 kts | 86° |
| 2026-05-07 10:20 | 44.00287 | 47.05948 | 39029 ft | 527 kts | 86° |
| 2026-05-07 10:20 | 44.00930 | 47.16081 | 39035 ft | 527 kts | 87° |
| 2026-05-07 10:21 | 44.01565 | 47.26239 | 39028 ft | 528 kts | 87° |
| 2026-05-07 10:21 | 44.02187 | 47.36329 | 39024 ft | 528 kts | 87° |
| 2026-05-07 10:22 | 44.02805 | 47.46503 | 39024 ft | 529 kts | 87° |
| 2026-05-07 10:22 | 44.03414 | 47.56687 | 39018 ft | 529 kts | 87° |
| 2026-05-07 10:23 | 44.04015 | 47.66874 | 39016 ft | 529 kts | 87° |
| 2026-05-07 10:23 | 44.05148 | 47.76917 | 39021 ft | 533 kts | 75° |
| 2026-05-07 10:24 | 44.08317 | 47.86224 | 39014 ft | 536 kts | 55° |
| 2026-05-07 10:24 | 44.13551 | 47.93548 | 39011 ft | 536 kts | 34° |
| 2026-05-07 10:25 | 44.20247 | 47.97931 | 39010 ft | 533 kts | 13° |
| 2026-05-07 10:25 | 44.27551 | 47.99312 | 39009 ft | 529 kts | 359° |
| 2026-05-07 10:26 | 44.34851 | 47.99156 | 39005 ft | 528 kts | 356° |
| 2026-05-07 10:26 | 44.42194 | 47.98781 | 39005 ft | 528 kts | 356° |
| 2026-05-07 10:27 | 44.49546 | 47.98545 | 38998 ft | 528 kts | 357° |
| 2026-05-07 10:27 | 44.56897 | 47.98407 | 38995 ft | 528 kts | 358° |
| 2026-05-07 10:28 | 44.64197 | 47.98294 | 38991 ft | 528 kts | 358° |
| 2026-05-07 10:28 | 44.71538 | 47.98177 | 38991 ft | 528 kts | 358° |
| 2026-05-07 10:29 | 44.78878 | 47.98055 | 38982 ft | 527 kts | 358° |
| 2026-05-07 10:29 | 44.86221 | 47.97930 | 38978 ft | 527 kts | 358° |
| 2026-05-07 10:30 | 44.97179 | 47.97742 | 38979 ft | 527 kts | 358° |
| 2026-05-07 10:30 | 45.04511 | 47.97617 | 38975 ft | 527 kts | 358° |
| 2026-05-07 10:31 | 45.11845 | 47.97492 | 38964 ft | 527 kts | 358° |
| 2026-05-07 10:31 | 45.19156 | 47.97368 | 38963 ft | 524 kts | 358° |
| 2026-05-07 10:32 | 45.26387 | 47.97243 | 38956 ft | 522 kts | 358° |
| 2026-05-07 10:32 | 45.33653 | 47.97116 | 38960 ft | 522 kts | 358° |
| 2026-05-07 10:33 | 45.40915 | 47.96990 | 38951 ft | 522 kts | 358° |
| 2026-05-07 10:33 | 45.48170 | 47.96864 | 38952 ft | 522 kts | 358° |
| 2026-05-07 10:34 | 45.55386 | 47.96738 | 38947 ft | 522 kts | 358° |
| 2026-05-07 10:34 | 45.62653 | 47.96611 | 38930 ft | 522 kts | 358° |
| 2026-05-07 10:35 | 45.66282 | 47.96548 | 38798 ft | 522 kts | 358° |
| 2026-05-07 10:35 | 45.69911 | 47.96486 | 38580 ft | 522 kts | 358° |
| 2026-05-07 10:35 | 45.73545 | 47.96421 | 38250 ft | 522 kts | 358° |
| 2026-05-07 10:35 | 45.77176 | 47.96356 | 37972 ft | 521 kts | 358° |
| 2026-05-07 10:36 | 45.84433 | 47.96226 | 37931 ft | 522 kts | 358° |
| 2026-05-07 10:36 | 45.95465 | 47.96031 | 37917 ft | 520 kts | 358° |
| 2026-05-07 10:37 | 46.02604 | 47.94665 | 37920 ft | 518 kts | 342° |
| 2026-05-07 10:37 | 46.09045 | 47.90238 | 37907 ft | 513 kts | 323° |
| 2026-05-07 10:38 | 46.14100 | 47.83079 | 37888 ft | 510 kts | 306° |
| 2026-05-07 10:38 | 46.18088 | 47.74722 | 37895 ft | 509 kts | 301° |
| 2026-05-07 10:39 | 46.31536 | 47.44043 | 37913 ft | 510 kts | 302° |
| 2026-05-07 10:39 | 46.46870 | 47.09480 | 37925 ft | 510 kts | 302° |
| 2026-05-07 10:40 | 46.62093 | 46.74727 | 37929 ft | 509 kts | 302° |
| 2026-05-07 10:40 | 46.77096 | 46.40037 | 37933 ft | 509 kts | 302° |
| 2026-05-07 10:41 | 46.84291 | 46.23247 | 37937 ft | 509 kts | 302° |
| 2026-05-07 10:41 | 46.88036 | 46.14467 | 37940 ft | 509 kts | 302° |
| 2026-05-07 10:42 | 46.92271 | 46.06214 | 37942 ft | 508 kts | 315° |
| 2026-05-07 10:42 | 46.97940 | 46.00225 | 37942 ft | 508 kts | 332° |
| 2026-05-07 10:43 | 47.05649 | 45.94632 | 37934 ft | 508 kts | 335° |
| 2026-05-07 10:43 | 47.31090 | 45.76424 | 37940 ft | 508 kts | 332° |
| 2026-05-07 10:44 | 47.55975 | 45.56740 | 37939 ft | 507 kts | 332° |
| 2026-05-07 10:44 | 47.80674 | 45.37172 | 37943 ft | 507 kts | 332° |
| 2026-05-07 10:45 | 48.05512 | 45.17276 | 37954 ft | 506 kts | 332° |
| 2026-05-07 10:45 | 48.30255 | 44.97233 | 37956 ft | 505 kts | 332° |
| 2026-05-07 10:46 | 48.54775 | 44.77152 | 37952 ft | 504 kts | 332° |
| 2026-05-07 10:46 | 48.79390 | 44.56765 | 37939 ft | 504 kts | 331° |
| 2026-05-07 10:47 | 49.03982 | 44.36169 | 37942 ft | 504 kts | 331° |
| 2026-05-07 10:47 | 49.28486 | 44.15408 | 37950 ft | 504 kts | 332° |
| 2026-05-07 10:48 | 49.52960 | 43.94439 | 37951 ft | 503 kts | 332° |
| 2026-05-07 10:48 | 49.76971 | 43.73622 | 37955 ft | 502 kts | 332° |
| 2026-05-07 10:49 | 49.83061 | 43.68318 | 37954 ft | 502 kts | 332° |
| 2026-05-07 10:49 | 49.89143 | 43.63002 | 37951 ft | 502 kts | 332° |
| 2026-05-07 10:50 | 49.95218 | 43.57667 | 37952 ft | 502 kts | 332° |
| 2026-05-07 10:50 | 50.01244 | 43.52352 | 37952 ft | 501 kts | 332° |
| 2026-05-07 10:51 | 50.07301 | 43.46999 | 37947 ft | 501 kts | 332° |
| 2026-05-07 10:51 | 50.13359 | 43.41633 | 37950 ft | 501 kts | 331° |
| 2026-05-07 10:52 | 50.19412 | 43.36255 | 37946 ft | 500 kts | 331° |
| 2026-05-07 10:52 | 50.25457 | 43.30867 | 37948 ft | 500 kts | 331° |
| 2026-05-07 10:53 | 50.31457 | 43.25502 | 37950 ft | 500 kts | 331° |
| 2026-05-07 10:53 | 50.37496 | 43.20088 | 37949 ft | 500 kts | 331° |
| 2026-05-07 10:54 | 50.43530 | 43.14662 | 37948 ft | 500 kts | 331° |
| 2026-05-07 10:54 | 50.49515 | 43.09266 | 37951 ft | 500 kts | 331° |
| 2026-05-07 10:55 | 50.55541 | 43.03814 | 37951 ft | 499 kts | 331° |
| 2026-05-07 10:55 | 50.61560 | 42.98351 | 37948 ft | 499 kts | 331° |
| 2026-05-07 10:56 | 50.67579 | 42.92896 | 37944 ft | 499 kts | 332° |
| 2026-05-07 10:56 | 50.73952 | 42.88620 | 37949 ft | 498 kts | 340° |
| 2026-05-07 10:57 | 50.80426 | 42.84938 | 37948 ft | 498 kts | 341° |
| 2026-05-07 10:57 | 50.86961 | 42.81321 | 37945 ft | 498 kts | 341° |
| 2026-05-07 10:58 | 50.93494 | 42.77692 | 37949 ft | 497 kts | 341° |
| 2026-05-07 10:58 | 51.00016 | 42.74037 | 37947 ft | 497 kts | 341° |
| 2026-05-07 10:59 | 51.06492 | 42.70387 | 37947 ft | 497 kts | 341° |
| 2026-05-07 10:59 | 51.13003 | 42.66709 | 37945 ft | 497 kts | 341° |
| 2026-05-07 11:00 | 51.19518 | 42.63018 | 37943 ft | 497 kts | 341° |
| 2026-05-07 11:00 | 51.26027 | 42.59318 | 37946 ft | 496 kts | 341° |
| 2026-05-07 11:01 | 51.32490 | 42.55633 | 37939 ft | 496 kts | 341° |
| 2026-05-07 11:01 | 51.38994 | 42.51926 | 37942 ft | 496 kts | 340° |
| 2026-05-07 11:02 | 51.45497 | 42.48198 | 37943 ft | 496 kts | 340° |
| 2026-05-07 11:02 | 51.52001 | 42.44455 | 37945 ft | 496 kts | 340° |
| 2026-05-07 11:03 | 51.58489 | 42.40709 | 37944 ft | 497 kts | 340° |
| 2026-05-07 11:03 | 51.64957 | 42.36964 | 37946 ft | 497 kts | 340° |
| 2026-05-07 11:04 | 51.71462 | 42.33186 | 37945 ft | 497 kts | 340° |
| 2026-05-07 11:04 | 51.77970 | 42.29396 | 37943 ft | 497 kts | 340° |
| 2026-05-07 11:05 | 51.84474 | 42.25595 | 37945 ft | 497 kts | 340° |
| 2026-05-07 11:05 | 51.90932 | 42.21811 | 37945 ft | 497 kts | 340° |
| 2026-05-07 11:06 | 52.08724 | 42.11325 | 37949 ft | 496 kts | 339° |
| 2026-05-07 11:06 | 52.34913 | 41.96995 | 37945 ft | 497 kts | 346° |
| 2026-05-07 11:07 | 52.48737 | 41.96025 | 37936 ft | 499 kts | 1° |
| 2026-05-07 11:07 | 52.62631 | 41.96856 | 37938 ft | 499 kts | 360° |
| 2026-05-07 11:07 | 52.75676 | 41.90639 | 37938 ft | 493 kts | 324° |
| 2026-05-07 11:07 | 52.86270 | 41.76722 | 37937 ft | 493 kts | 319° |
| 2026-05-07 11:08 | 53.07396 | 41.47848 | 37938 ft | 491 kts | 319° |
| 2026-05-07 11:08 | 53.30019 | 41.23009 | 37937 ft | 495 kts | 341° |
| 2026-05-07 11:09 | 53.56417 | 41.09562 | 37939 ft | 495 kts | 341° |
| 2026-05-07 11:09 | 53.68617 | 41.00072 | 37935 ft | 490 kts | 318° |
| 2026-05-07 11:09 | 53.76021 | 40.81196 | 37933 ft | 486 kts | 293° |
| 2026-05-07 11:10 | 53.86654 | 40.39138 | 37921 ft | 486 kts | 292° |
| 2026-05-07 11:10 | 53.92692 | 40.15238 | 37923 ft | 485 kts | 292° |
| 2026-05-07 11:11 | 53.95335 | 40.04698 | 37919 ft | 485 kts | 292° |
| 2026-05-07 11:11 | 53.97951 | 39.94218 | 37934 ft | 485 kts | 292° |
| 2026-05-07 11:12 | 54.00566 | 39.83694 | 37713 ft | 478 kts | 292° |
| 2026-05-07 11:12 | 54.01849 | 39.78513 | 37259 ft | 473 kts | 292° |
| 2026-05-07 11:12 | 54.03122 | 39.73359 | 36624 ft | 472 kts | 292° |
| 2026-05-07 11:13 | 54.04387 | 39.68223 | 35923 ft | 471 kts | 292° |
| 2026-05-07 11:13 | 54.05652 | 39.63078 | 35223 ft | 471 kts | 292° |
| 2026-05-07 11:13 | 54.06916 | 39.57921 | 34433 ft | 473 kts | 292° |
| 2026-05-07 11:13 | 54.08182 | 39.52749 | 33576 ft | 474 kts | 292° |
| 2026-05-07 11:14 | 54.09447 | 39.47563 | 32707 ft | 474 kts | 292° |
| 2026-05-07 11:14 | 54.10694 | 39.42444 | 31862 ft | 475 kts | 292° |
| 2026-05-07 11:14 | 54.11961 | 39.37227 | 31003 ft | 477 kts | 292° |
| 2026-05-07 11:14 | 54.13227 | 39.32002 | 30088 ft | 479 kts | 292° |
| 2026-05-07 11:15 | 54.14504 | 39.26723 | 29691 ft | 483 kts | 292° |
| 2026-05-07 11:15 | 54.15784 | 39.21419 | 29543 ft | 484 kts | 292° |
| 2026-05-07 11:15 | 54.17064 | 39.16106 | 29401 ft | 484 kts | 292° |
| 2026-05-07 11:15 | 54.18339 | 39.10794 | 29257 ft | 484 kts | 292° |
| 2026-05-07 11:16 | 54.19611 | 39.05478 | 29117 ft | 484 kts | 291° |
| 2026-05-07 11:16 | 54.20883 | 39.00156 | 28945 ft | 484 kts | 291° |
| 2026-05-07 11:16 | 54.22234 | 38.94978 | 28562 ft | 484 kts | 297° |
| 2026-05-07 11:16 | 54.24198 | 38.90326 | 28089 ft | 483 kts | 312° |
| 2026-05-07 11:17 | 54.26811 | 38.86741 | 27676 ft | 483 kts | 328° |
| 2026-05-07 11:17 | 54.29787 | 38.84076 | 27412 ft | 483 kts | 332° |
| 2026-05-07 11:17 | 54.32811 | 38.81589 | 27168 ft | 481 kts | 332° |
| 2026-05-07 11:17 | 54.35820 | 38.79093 | 26939 ft | 480 kts | 332° |
| 2026-05-07 11:18 | 54.38805 | 38.76584 | 26701 ft | 476 kts | 332° |
| 2026-05-07 11:18 | 54.41764 | 38.74075 | 26475 ft | 473 kts | 332° |
| 2026-05-07 11:18 | 54.44711 | 38.71561 | 26239 ft | 472 kts | 332° |
| 2026-05-07 11:18 | 54.47601 | 38.69084 | 26015 ft | 470 kts | 332° |
| 2026-05-07 11:19 | 54.50497 | 38.66598 | 25806 ft | 453 kts | 331° |
| 2026-05-07 11:19 | 54.53196 | 38.64279 | 25679 ft | 415 kts | 331° |
| 2026-05-07 11:19 | 54.55686 | 38.62132 | 25464 ft | 386 kts | 331° |
| 2026-05-07 11:19 | 54.58046 | 38.60087 | 25225 ft | 380 kts | 330° |
| 2026-05-07 11:20 | 54.60419 | 38.58022 | 24977 ft | 382 kts | 330° |
| 2026-05-07 11:20 | 54.62781 | 38.55941 | 24816 ft | 381 kts | 329° |
| 2026-05-07 11:20 | 54.65017 | 38.53470 | 24671 ft | 385 kts | 322° |
| 2026-05-07 11:20 | 54.67164 | 38.50724 | 24443 ft | 393 kts | 321° |
| 2026-05-07 11:21 | 54.69362 | 38.47827 | 24219 ft | 401 kts | 320° |
| 2026-05-07 11:21 | 54.71591 | 38.44860 | 23980 ft | 407 kts | 320° |
| 2026-05-07 11:21 | 54.73849 | 38.41842 | 23754 ft | 413 kts | 320° |
| 2026-05-07 11:21 | 54.76135 | 38.38779 | 23520 ft | 418 kts | 320° |
| 2026-05-07 11:22 | 54.78446 | 38.35676 | 23252 ft | 422 kts | 320° |
| 2026-05-07 11:22 | 54.80773 | 38.32546 | 22979 ft | 425 kts | 320° |
| 2026-05-07 11:22 | 54.83117 | 38.29388 | 22706 ft | 428 kts | 320° |
| 2026-05-07 11:22 | 54.85443 | 38.26249 | 22442 ft | 430 kts | 320° |
| 2026-05-07 11:23 | 54.87806 | 38.23055 | 22177 ft | 432 kts | 320° |
| 2026-05-07 11:23 | 54.90180 | 38.19839 | 21914 ft | 433 kts | 320° |
| 2026-05-07 11:23 | 54.92553 | 38.16621 | 21648 ft | 432 kts | 320° |
| 2026-05-07 11:23 | 54.94915 | 38.13415 | 21393 ft | 430 kts | 320° |
| 2026-05-07 11:24 | 54.97271 | 38.10215 | 21132 ft | 429 kts | 320° |
| 2026-05-07 11:24 | 54.99615 | 38.07021 | 20875 ft | 427 kts | 320° |
| 2026-05-07 11:24 | 55.01946 | 38.03835 | 20625 ft | 425 kts | 319° |
| 2026-05-07 11:24 | 55.04237 | 38.00700 | 20377 ft | 423 kts | 319° |
| 2026-05-07 11:25 | 55.06550 | 37.97534 | 20132 ft | 422 kts | 319° |
| 2026-05-07 11:25 | 55.08854 | 37.94377 | 19880 ft | 420 kts | 319° |
| 2026-05-07 11:25 | 55.11144 | 37.91232 | 19628 ft | 418 kts | 319° |
| 2026-05-07 11:25 | 55.13429 | 37.88090 | 19392 ft | 417 kts | 319° |
| 2026-05-07 11:26 | 55.15703 | 37.84957 | 19157 ft | 415 kts | 319° |
| 2026-05-07 11:26 | 55.17968 | 37.81831 | 18913 ft | 414 kts | 319° |
| 2026-05-07 11:26 | 55.20195 | 37.78757 | 18681 ft | 413 kts | 319° |
| 2026-05-07 11:26 | 55.22442 | 37.75647 | 18448 ft | 411 kts | 319° |
| 2026-05-07 11:27 | 55.24684 | 37.72543 | 18215 ft | 410 kts | 319° |
| 2026-05-07 11:27 | 55.26930 | 37.69422 | 18005 ft | 413 kts | 319° |
| 2026-05-07 11:27 | 55.29169 | 37.66312 | 17741 ft | 409 kts | 319° |
| 2026-05-07 11:27 | 55.31394 | 37.63217 | 17474 ft | 407 kts | 319° |
| 2026-05-07 11:28 | 55.33577 | 37.60178 | 17350 ft | 392 kts | 319° |
| 2026-05-07 11:28 | 55.35667 | 37.57268 | 17189 ft | 376 kts | 318° |
| 2026-05-07 11:28 | 55.37674 | 37.54467 | 17066 ft | 360 kts | 318° |
| 2026-05-07 11:28 | 55.39573 | 37.51811 | 16930 ft | 347 kts | 318° |
| 2026-05-07 11:29 | 55.41419 | 37.49227 | 16874 ft | 331 kts | 317° |
| 2026-05-07 11:29 | 55.43179 | 37.46759 | 16874 ft | 316 kts | 317° |
| 2026-05-07 11:29 | 55.44877 | 37.44370 | 16877 ft | 310 kts | 317° |
| 2026-05-07 11:29 | 55.46561 | 37.41994 | 16885 ft | 310 kts | 317° |
| 2026-05-07 11:30 | 55.48247 | 37.39612 | 16883 ft | 311 kts | 317° |
| 2026-05-07 11:30 | 55.49982 | 37.37330 | 16878 ft | 314 kts | 324° |
| 2026-05-07 11:30 | 55.52029 | 37.35894 | 16858 ft | 320 kts | 345° |
| 2026-05-07 11:30 | 55.54224 | 37.35580 | 16522 ft | 324 kts | 355° |
| 2026-05-07 11:31 | 55.56481 | 37.35591 | 16142 ft | 324 kts | 356° |
| 2026-05-07 11:31 | 55.58732 | 37.35617 | 15766 ft | 323 kts | 355° |
| 2026-05-07 11:31 | 55.60969 | 37.35625 | 15412 ft | 321 kts | 355° |
| 2026-05-07 11:31 | 55.63199 | 37.35622 | 15056 ft | 320 kts | 355° |
| 2026-05-07 11:32 | 55.67635 | 37.35593 | 14351 ft | 317 kts | 355° |
| 2026-05-07 11:32 | 55.69839 | 37.35572 | 13991 ft | 316 kts | 354° |
| 2026-05-07 11:32 | 55.72033 | 37.35550 | 13645 ft | 314 kts | 354° |
| 2026-05-07 11:33 | 55.74215 | 37.35502 | 13276 ft | 312 kts | 352° |
| 2026-05-07 11:33 | 55.76347 | 37.35277 | 12916 ft | 309 kts | 350° |
| 2026-05-07 11:33 | 55.78486 | 37.35005 | 12586 ft | 308 kts | 350° |
| 2026-05-07 11:33 | 55.80621 | 37.34745 | 12216 ft | 307 kts | 351° |
| 2026-05-07 11:34 | 55.82748 | 37.34497 | 11876 ft | 306 kts | 351° |
| 2026-05-07 11:34 | 55.84869 | 37.34255 | 11569 ft | 305 kts | 351° |
| 2026-05-07 11:34 | 55.86989 | 37.34013 | 11306 ft | 306 kts | 351° |
| 2026-05-07 11:34 | 55.89112 | 37.33776 | 11023 ft | 305 kts | 351° |
| 2026-05-07 11:35 | 55.91228 | 37.33541 | 10747 ft | 304 kts | 351° |
| 2026-05-07 11:35 | 55.93303 | 37.33315 | 10517 ft | 302 kts | 351° |
| 2026-05-07 11:35 | 55.95403 | 37.33087 | 10321 ft | 302 kts | 350° |
| 2026-05-07 11:35 | 55.97476 | 37.32675 | 10039 ft | 296 kts | 340° |
| 2026-05-07 11:36 | 55.99316 | 37.31278 | 9773 ft | 284 kts | 322° |
| 2026-05-07 11:36 | 56.00981 | 37.29419 | 9498 ft | 281 kts | 320° |
| 2026-05-07 11:36 | 56.02621 | 37.27526 | 9240 ft | 280 kts | 321° |
| 2026-05-07 11:36 | 56.04259 | 37.25646 | 8978 ft | 279 kts | 321° |
| 2026-05-07 11:37 | 56.05891 | 37.23774 | 8708 ft | 278 kts | 321° |
| 2026-05-07 11:37 | 56.06982 | 37.22566 | 8550 ft | 280 kts | 323° |
| 2026-05-07 11:37 | 56.08830 | 37.21425 | 8341 ft | 285 kts | 348° |
| 2026-05-07 11:37 | 56.11359 | 37.22507 | 8115 ft | 290 kts | 30° |
| 2026-05-07 11:38 | 56.12764 | 37.25056 | 7951 ft | 287 kts | 52° |
| 2026-05-07 11:38 | 56.13888 | 37.27985 | 7685 ft | 284 kts | 55° |
| 2026-05-07 11:38 | 56.14599 | 37.29908 | 7386 ft | 277 kts | 55° |
| 2026-05-07 11:38 | 56.15643 | 37.32770 | 7157 ft | 272 kts | 58° |
| 2026-05-07 11:39 | 56.16375 | 37.35898 | 6924 ft | 272 kts | 74° |
| 2026-05-07 11:39 | 56.16875 | 37.39157 | 6539 ft | 270 kts | 76° |
| 2026-05-07 11:39 | 56.17341 | 37.42416 | 6234 ft | 269 kts | 76° |
| 2026-05-07 11:39 | 56.17812 | 37.45651 | 5965 ft | 267 kts | 76° |
| 2026-05-07 11:40 | 56.18285 | 37.48868 | 5741 ft | 267 kts | 76° |
| 2026-05-07 11:40 | 56.18759 | 37.52090 | 5490 ft | 266 kts | 75° |
| 2026-05-07 11:40 | 56.19225 | 37.55282 | 5234 ft | 263 kts | 77° |
| 2026-05-07 11:40 | 56.19281 | 37.58462 | 4976 ft | 256 kts | 106° |
| 2026-05-07 11:41 | 56.18462 | 37.61170 | 4882 ft | 245 kts | 135° |
| 2026-05-07 11:41 | 56.17292 | 37.63381 | 4762 ft | 244 kts | 140° |
| 2026-05-07 11:41 | 56.16091 | 37.65525 | 4642 ft | 246 kts | 139° |
| 2026-05-07 11:41 | 56.14493 | 37.68394 | 4498 ft | 246 kts | 139° |
| 2026-05-07 11:42 | 56.13681 | 37.69867 | 4408 ft | 246 kts | 139° |
| 2026-05-07 11:42 | 56.12482 | 37.72051 | 4315 ft | 243 kts | 139° |
| 2026-05-07 11:42 | 56.11341 | 37.74151 | 4158 ft | 225 kts | 139° |
| 2026-05-07 11:42 | 56.10270 | 37.76041 | 4041 ft | 214 kts | 144° |
| 2026-05-07 11:43 | 56.09011 | 37.77205 | 3899 ft | 199 kts | 176° |
| 2026-05-07 11:43 | 56.07686 | 37.76983 | 3839 ft | 190 kts | 200° |
| 2026-05-07 11:43 | 56.06426 | 37.76277 | 3733 ft | 189 kts | 203° |
| 2026-05-07 11:43 | 56.05179 | 37.75525 | 3612 ft | 190 kts | 203° |
| 2026-05-07 11:44 | 56.03922 | 37.74782 | 3479 ft | 190 kts | 203° |
| 2026-05-07 11:44 | 56.02705 | 37.73955 | 3337 ft | 183 kts | 214° |
| 2026-05-07 11:44 | 56.01880 | 37.72317 | 3232 ft | 177 kts | 239° |
| 2026-05-07 11:44 | 56.01421 | 37.70322 | 3174 ft | 176 kts | 256° |
| 2026-05-07 11:45 | 56.01135 | 37.68184 | 3091 ft | 176 kts | 254° |
| 2026-05-07 11:45 | 56.00816 | 37.66079 | 3025 ft | 176 kts | 254° |
| 2026-05-07 11:45 | 56.00482 | 37.63930 | 2803 ft | 184 kts | 254° |
| 2026-05-07 11:45 | 56.00150 | 37.61718 | 2540 ft | 184 kts | 255° |
| 2026-05-07 11:46 | 55.99840 | 37.59618 | 2338 ft | 165 kts | 254° |
| 2026-05-07 11:46 | 55.99551 | 37.57687 | 2104 ft | 155 kts | 254° |
| 2026-05-07 11:46 | 55.99290 | 37.55919 | 1917 ft | 139 kts | 253° |
| 2026-05-07 11:46 | 55.99054 | 37.54346 | 1742 ft | 127 kts | 255° |
| 2026-05-07 11:47 | 55.98834 | 37.52857 | 1601 ft | 120 kts | 254° |
| 2026-05-07 11:47 | 55.98613 | 37.51421 | 1393 ft | 120 kts | 253° |
| 2026-05-07 11:47 | 55.98397 | 37.49993 | 1343 ft | 129 kts | 256° |
| 2026-05-07 11:47 | 55.98168 | 37.48380 | 1167 ft | 136 kts | 256° |
| 2026-05-07 11:48 | 55.97923 | 37.46771 | 962 ft | 131 kts | 258° |
| 2026-05-07 11:48 | 55.97700 | 37.45199 | 764 ft | 128 kts | 256° |
| 2026-05-07 11:48 | 55.97473 | 37.43699 | 649 ft | 122 kts | 255° |
| 2026-05-07 11:48 | 55.97297 | 37.42522 | 647 ft | 64 kts | 255° |
| 2026-05-07 11:49 | 55.97228 | 37.42054 | 648 ft | 33 kts | 255° |
| 2026-05-07 11:49 | 55.97170 | 37.41669 | 646 ft | 31 kts | 255° |
| 2026-05-07 11:49 | 55.97138 | 37.41445 | 646 ft | 14 kts | 263° |
| 2026-05-07 11:49 | 55.97164 | 37.41358 | 646 ft | 10 kts | 323° |
| 2026-05-07 11:50 | 55.97236 | 37.41313 | 645 ft | 12 kts | 344° |
| 2026-05-07 11:50 | 55.97324 | 37.41271 | 646 ft | 14 kts | 345° |
| 2026-05-07 11:50 | 55.97426 | 37.41222 | 646 ft | 17 kts | 345° |
| 2026-05-07 11:50 | 55.97528 | 37.41173 | 645 ft | 11 kts | 345° |
| 2026-05-07 11:51 | 55.97583 | 37.41156 | 645 ft | 6 kts | 10° |
| 2026-05-07 11:51 | 55.97622 | 37.41208 | 645 ft | 8 kts | 56° |
| 2026-05-07 11:51 | 55.97642 | 37.41305 | 645 ft | 10 kts | 73° |
| 2026-05-07 11:51 | 55.97648 | 37.41342 | 645 ft | 0 kts | 73° |
| 2026-05-07 11:53 | 55.97650 | 37.41355 | 645 ft | 5 kts | 75° |
| 2026-05-07 11:53 | 55.97663 | 37.41438 | 645 ft | 8 kts | 75° |
| 2026-05-07 11:53 | 55.97680 | 37.41556 | 645 ft | 11 kts | 75° |
| 2026-05-07 11:53 | 55.97703 | 37.41707 | 645 ft | 14 kts | 75° |
| 2026-05-07 11:54 | 55.97714 | 37.41781 | 645 ft | 0 kts | 75° |
| 2026-05-07 11:54 | 55.97715 | 37.41788 | 645 ft | 3 kts | 75° |
| 2026-05-07 11:55 | 55.97729 | 37.41878 | 645 ft | 11 kts | 75° |
| 2026-05-07 11:55 | 55.97753 | 37.42000 | 647 ft | 7 kts | 44° |
| 2026-05-07 11:55 | 55.97794 | 37.41993 | 645 ft | 6 kts | 326° |
| 2026-05-07 11:55 | 55.97819 | 37.41935 | 645 ft | 0 kts | 306° |
| 2026-05-07 11:56 | 55.97820 | 37.41933 | 645 ft | 1 kts | 306° |
| 2026-05-07 11:56 | 55.97827 | 37.41915 | 645 ft | 1 kts | 306° |